sensor_id;sensor_type;location;lat;lon;timestamp;pressure;altitude;pressure_sealevel;temperature;humidity
40155;BME280;25875;48.202;16.334;2023-03-20T00:01:15;99172.78;;;9.63;47.89
40155;BME280;25875;48.202;16.334;2023-03-20T00:03:43;99180.81;;;9.61;47.83
40155;BME280;25875;48.202;16.334;2023-03-20T00:06:14;99179.97;;;9.61;48.24
40155;BME280;25875;48.202;16.334;2023-03-20T00:08:43;99189.59;;;9.62;47.75
40155;BME280;25875;48.202;16.334;2023-03-20T00:11:25;99178.25;;;9.60;49.20
40155;BME280;25875;48.202;16.334;2023-03-20T00:13:53;99192.59;;;9.56;48.07
40155;BME280;25875;48.202;16.334;2023-03-20T00:16:23;99031.00;;;8.61;48.23
40155;BME280;25875;48.202;16.334;2023-03-20T00:18:51;99178.50;;;9.55;48.18
40155;BME280;25875;48.202;16.334;2023-03-20T00:21:20;99128.22;;;9.22;48.08
40155;BME280;25875;48.202;16.334;2023-03-20T00:23:47;99173.97;;;9.57;48.15
40155;BME280;25875;48.202;16.334;2023-03-20T00:26:17;98985.09;;;8.47;48.22
40155;BME280;25875;48.202;16.334;2023-03-20T00:28:45;99169.47;;;9.59;48.27
40155;BME280;25875;48.202;16.334;2023-03-20T00:31:19;99139.69;;;9.39;48.38
40155;BME280;25875;48.202;16.334;2023-03-20T00:33:49;99163.81;;;9.50;48.23
40155;BME280;25875;48.202;16.334;2023-03-20T00:36:16;99046.72;;;8.80;48.24
40155;BME280;25875;48.202;16.334;2023-03-20T00:38:43;99170.47;;;9.57;48.28
40155;BME280;25875;48.202;16.334;2023-03-20T00:41:20;99172.34;;;9.55;49.09
40155;BME280;25875;48.202;16.334;2023-03-20T00:43:50;98534.88;;;5.78;48.26
40155;BME280;25875;48.202;16.334;2023-03-20T00:46:18;99159.03;;;9.56;48.36
40155;BME280;25875;48.202;16.334;2023-03-20T00:48:45;99159.97;;;9.55;48.28
40155;BME280;25875;48.202;16.334;2023-03-20T00:51:12;99157.34;;;9.55;48.48
40155;BME280;25875;48.202;16.334;2023-03-20T00:53:39;99161.59;;;9.58;48.38
40155;BME280;25875;48.202;16.334;2023-03-20T00:56:21;99155.53;;;9.56;49.03
40155;BME280;25875;48.202;16.334;2023-03-20T00:58:54;99158.28;;;9.54;48.39
40155;BME280;25875;48.202;16.334;2023-03-20T01:01:20;99148.47;;;9.56;48.39
40155;BME280;25875;48.202;16.334;2023-03-20T01:03:47;99158.88;;;9.59;48.36
40155;BME280;25875;48.202;16.334;2023-03-20T01:06:14;99153.50;;;9.61;48.32
40155;BME280;25875;48.202;16.334;2023-03-20T01:08:43;99069.75;;;9.11;48.42
40155;BME280;25875;48.202;16.334;2023-03-20T01:11:11;99152.72;;;9.59;48.50
40155;BME280;25875;48.202;16.334;2023-03-20T01:13:39;99115.53;;;9.29;48.22
40155;BME280;25875;48.202;16.334;2023-03-20T01:16:18;99159.91;;;9.57;49.19
40155;BME280;25875;48.202;16.334;2023-03-20T01:18:45;99131.72;;;9.40;48.41
40155;BME280;25875;48.202;16.334;2023-03-20T01:21:12;99164.34;;;9.56;48.47
40155;BME280;25875;48.202;16.334;2023-03-20T01:23:39;99174.06;;;9.56;48.68
40155;BME280;25875;48.202;16.334;2023-03-20T01:26:17;99169.78;;;9.53;48.98
40155;BME280;25875;48.202;16.334;2023-03-20T01:28:44;99079.19;;;8.99;48.51
40155;BME280;25875;48.202;16.334;2023-03-20T01:31:14;99162.72;;;9.54;48.79
40155;BME280;25875;48.202;16.334;2023-03-20T01:33:41;99161.84;;;9.53;48.52
40155;BME280;25875;48.202;16.334;2023-03-20T01:36:09;99159.22;;;9.53;48.61
40155;BME280;25875;48.202;16.334;2023-03-20T01:38:37;99129.44;;;9.32;48.72
40155;BME280;25875;48.202;16.334;2023-03-20T01:41:05;99166.47;;;9.50;48.75
40155;BME280;25875;48.202;16.334;2023-03-20T01:43:34;99158.94;;;9.42;48.79
40155;BME280;25875;48.202;16.334;2023-03-20T01:46:15;99172.84;;;9.46;49.69
40155;BME280;25875;48.202;16.334;2023-03-20T01:48:58;99147.25;;;9.29;49.95
40155;BME280;25875;48.202;16.334;2023-03-20T01:51:27;99171.38;;;9.40;49.07
40155;BME280;25875;48.202;16.334;2023-03-20T01:53:57;99174.09;;;9.39;49.20
40155;BME280;25875;48.202;16.334;2023-03-20T01:56:27;98778.31;;;6.77;49.15
40155;BME280;25875;48.202;16.334;2023-03-20T01:58:59;99184.75;;;9.37;49.22
40155;BME280;25875;48.202;16.334;2023-03-20T02:01:32;99170.66;;;9.37;49.13
40155;BME280;25875;48.202;16.334;2023-03-20T02:04:00;99118.44;;;9.07;49.03
40155;BME280;25875;48.202;16.334;2023-03-20T02:06:27;99138.16;;;9.17;49.10
40155;BME280;25875;48.202;16.334;2023-03-20T02:08:54;99149.66;;;9.34;49.09
40155;BME280;25875;48.202;16.334;2023-03-20T02:11:22;99161.50;;;9.44;49.19
40155;BME280;25875;48.202;16.334;2023-03-20T02:13:52;99097.59;;;9.01;49.01
40155;BME280;25875;48.202;16.334;2023-03-20T02:16:20;99146.84;;;9.37;49.20
40155;BME280;25875;48.202;16.334;2023-03-20T02:18:49;99170.19;;;9.46;49.31
40155;BME280;25875;48.202;16.334;2023-03-20T02:24:52;99171.22;;;9.43;50.82
40155;BME280;25875;48.202;16.334;2023-03-20T02:27:24;99005.53;;;8.43;49.66
40155;BME280;25875;48.202;16.334;2023-03-20T02:36:48;99054.69;;;8.63;50.64
40155;BME280;25875;48.202;16.334;2023-03-20T02:39:38;99149.50;;;9.19;50.65
40155;BME280;25875;48.202;16.334;2023-03-20T02:42:14;98924.06;;;7.85;50.40
40155;BME280;25875;48.202;16.334;2023-03-20T02:44:50;99154.66;;;9.22;50.24
40155;BME280;25875;48.202;16.334;2023-03-20T02:47:22;99189.00;;;9.40;50.19
40155;BME280;25875;48.202;16.334;2023-03-20T02:49:55;99190.69;;;9.42;50.16
40155;BME280;25875;48.202;16.334;2023-03-20T02:52:31;99163.13;;;9.12;50.81
40155;BME280;25875;48.202;16.334;2023-03-20T02:55:07;99189.75;;;9.43;50.72
40155;BME280;25875;48.202;16.334;2023-03-20T02:57:42;99191.44;;;9.44;50.73
40155;BME280;25875;48.202;16.334;2023-03-20T03:00:14;99083.66;;;8.82;50.53
40155;BME280;25875;48.202;16.334;2023-03-20T03:02:50;99194.00;;;9.46;51.24
40155;BME280;25875;48.202;16.334;2023-03-20T03:05:21;99128.00;;;9.10;50.69
40155;BME280;25875;48.202;16.334;2023-03-20T03:07:52;99186.84;;;9.48;50.65
40155;BME280;25875;48.202;16.334;2023-03-20T03:10:25;99193.00;;;9.48;50.83
40155;BME280;25875;48.202;16.334;2023-03-20T03:12:56;99197.19;;;9.52;50.59
40155;BME280;25875;48.202;16.334;2023-03-20T03:15:27;99126.97;;;9.12;51.54
40155;BME280;25875;48.202;16.334;2023-03-20T03:17:57;99199.59;;;9.57;51.37
40155;BME280;25875;48.202;16.334;2023-03-20T03:20:28;99140.44;;;9.25;52.00
40155;BME280;25875;48.202;16.334;2023-03-20T03:22:57;99199.41;;;9.60;51.70
40155;BME280;25875;48.202;16.334;2023-03-20T03:25:27;99194.03;;;9.61;52.25
40155;BME280;25875;48.202;16.334;2023-03-20T03:28:01;99197.47;;;9.63;52.52
40155;BME280;25875;48.202;16.334;2023-03-20T03:30:31;99197.47;;;9.63;51.98
40155;BME280;25875;48.202;16.334;2023-03-20T03:33:10;99198.31;;;9.64;53.98
40155;BME280;25875;48.202;16.334;2023-03-20T03:35:40;99197.53;;;9.62;52.25
40155;BME280;25875;48.202;16.334;2023-03-20T03:38:22;99199.25;;;9.63;54.27
40155;BME280;25875;48.202;16.334;2023-03-20T03:41:02;99154.72;;;9.38;53.94
40155;BME280;25875;48.202;16.334;2023-03-20T03:43:34;99194.97;;;9.60;52.54
40155;BME280;25875;48.202;16.334;2023-03-20T03:46:08;99197.53;;;9.62;53.48
40155;BME280;25875;48.202;16.334;2023-03-20T03:48:42;99076.25;;;8.88;53.05
40155;BME280;25875;48.202;16.334;2023-03-20T03:51:13;99202.84;;;9.62;52.94
40155;BME280;25875;48.202;16.334;2023-03-20T03:53:46;99198.41;;;9.62;53.89
40155;BME280;25875;48.202;16.334;2023-03-20T03:56:19;99112.97;;;9.10;54.13
40155;BME280;25875;48.202;16.334;2023-03-20T03:58:51;99198.47;;;9.61;53.60
40155;BME280;25875;48.202;16.334;2023-03-20T04:01:20;99188.66;;;9.63;53.36
40155;BME280;25875;48.202;16.334;2023-03-20T04:03:50;99191.41;;;9.61;53.68
40155;BME280;25875;48.202;16.334;2023-03-20T04:06:18;99156.28;;;9.42;53.44
40155;BME280;25875;48.202;16.334;2023-03-20T04:08:46;99133.19;;;9.28;53.69
40155;BME280;25875;48.202;16.334;2023-03-20T04:11:14;99126.16;;;8.94;53.67
40155;BME280;25875;48.202;16.334;2023-03-20T04:13:44;99190.88;;;9.55;54.33
40155;BME280;25875;48.202;16.334;2023-03-20T04:16:14;99199.34;;;9.61;53.93
40155;BME280;25875;48.202;16.334;2023-03-20T04:18:42;99192.34;;;9.60;54.07
40155;BME280;25875;48.202;16.334;2023-03-20T04:21:10;99190.47;;;9.62;54.11
40155;BME280;25875;48.202;16.334;2023-03-20T04:23:36;99193.09;;;9.62;54.19
40155;BME280;25875;48.202;16.334;2023-03-20T04:26:04;99077.28;;;8.86;54.11
40155;BME280;25875;48.202;16.334;2023-03-20T04:28:31;99111.19;;;9.11;54.32
40155;BME280;25875;48.202;16.334;2023-03-20T04:31:00;99185.16;;;9.62;54.26
40155;BME280;25875;48.202;16.334;2023-03-20T04:33:27;99187.91;;;9.61;54.48
40155;BME280;25875;48.202;16.334;2023-03-20T04:35:55;99189.69;;;9.60;54.50
40155;BME280;25875;48.202;16.334;2023-03-20T04:38:22;99108.53;;;9.11;54.71
40155;BME280;25875;48.202;16.334;2023-03-20T04:40:49;99200.34;;;9.59;54.54
40155;BME280;25875;48.202;16.334;2023-03-20T04:43:16;99190.63;;;9.59;54.45
40155;BME280;25875;48.202;16.334;2023-03-20T04:45:46;99055.50;;;8.81;54.92
40155;BME280;25875;48.202;16.334;2023-03-20T04:48:14;99194.22;;;9.58;55.15
40155;BME280;25875;48.202;16.334;2023-03-20T04:50:41;99189.78;;;9.59;55.15
40155;BME280;25875;48.202;16.334;2023-03-20T04:53:11;99203.94;;;9.58;55.03
40155;BME280;25875;48.202;16.334;2023-03-20T04:55:37;98920.97;;;7.94;54.98
40155;BME280;25875;48.202;16.334;2023-03-20T04:58:04;99203.00;;;9.59;55.12
40155;BME280;25875;48.202;16.334;2023-03-20T05:00:31;98926.56;;;7.88;55.23
40155;BME280;25875;48.202;16.334;2023-03-20T05:02:58;99034.75;;;8.40;55.16
40155;BME280;25875;48.202;16.334;2023-03-20T05:05:27;99217.34;;;9.55;55.35
40155;BME280;25875;48.202;16.334;2023-03-20T05:07:54;99106.34;;;8.86;55.27
40155;BME280;25875;48.202;16.334;2023-03-20T05:10:21;99043.44;;;8.42;55.09
40155;BME280;25875;48.202;16.334;2023-03-20T05:12:47;99227.84;;;9.56;55.37
40155;BME280;25875;48.202;16.334;2023-03-20T05:15:14;99180.25;;;9.22;55.44
40155;BME280;25875;48.202;16.334;2023-03-20T05:17:41;99233.22;;;9.55;55.48
40155;BME280;25875;48.202;16.334;2023-03-20T05:20:09;99241.13;;;9.55;55.53
40155;BME280;25875;48.202;16.334;2023-03-20T05:22:37;99238.50;;;9.55;55.55
40155;BME280;25875;48.202;16.334;2023-03-20T05:25:04;99247.28;;;9.55;55.42
40155;BME280;25875;48.202;16.334;2023-03-20T05:27:31;99193.41;;;9.23;55.32
40155;BME280;25875;48.202;16.334;2023-03-20T05:29:58;99229.56;;;9.23;55.33
40155;BME280;25875;48.202;16.334;2023-03-20T05:32:25;99168.81;;;9.04;55.62
40155;BME280;25875;48.202;16.334;2023-03-20T05:34:52;99217.50;;;9.35;55.57
40155;BME280;25875;48.202;16.334;2023-03-20T05:37:18;99267.28;;;9.61;55.55
40155;BME280;25875;48.202;16.334;2023-03-20T05:39:46;99269.00;;;9.62;55.77
40155;BME280;25875;48.202;16.334;2023-03-20T05:42:13;99051.06;;;8.31;55.43
40155;BME280;25875;48.202;16.334;2023-03-20T05:44:40;99270.69;;;9.63;55.55
40155;BME280;25875;48.202;16.334;2023-03-20T05:47:07;99201.53;;;9.19;55.54
40155;BME280;25875;48.202;16.334;2023-03-20T05:49:34;99245.28;;;9.43;55.61
40155;BME280;25875;48.202;16.334;2023-03-20T05:52:01;99130.75;;;8.74;55.41
40155;BME280;25875;48.202;16.334;2023-03-20T05:54:28;99289.59;;;9.73;55.34
40155;BME280;25875;48.202;16.334;2023-03-20T05:56:58;99257.19;;;9.52;55.37
40155;BME280;25875;48.202;16.334;2023-03-20T05:59:25;99239.13;;;9.43;55.52
40155;BME280;25875;48.202;16.334;2023-03-20T06:01:52;99238.03;;;9.47;55.41
40155;BME280;25875;48.202;16.334;2023-03-20T06:04:18;99296.03;;;9.84;55.39
40155;BME280;25875;48.202;16.334;2023-03-20T06:06:47;99297.66;;;9.87;55.37
40155;BME280;25875;48.202;16.334;2023-03-20T06:09:14;99240.22;;;9.56;55.41
40155;BME280;25875;48.202;16.334;2023-03-20T06:11:41;99297.16;;;9.96;55.04
40155;BME280;25875;48.202;16.334;2023-03-20T06:14:09;99178.91;;;9.30;55.03
40155;BME280;25875;48.202;16.334;2023-03-20T06:16:36;99306.53;;;10.19;54.85
40155;BME280;25875;48.202;16.334;2023-03-20T06:19:03;99305.84;;;10.31;54.49
40155;BME280;25875;48.202;16.334;2023-03-20T06:21:31;99250.47;;;10.11;54.36
40155;BME280;25875;48.202;16.334;2023-03-20T06:23:57;99300.06;;;10.56;54.32
40155;BME280;25875;48.202;16.334;2023-03-20T06:26:26;99244.75;;;10.34;53.93
40155;BME280;25875;48.202;16.334;2023-03-20T06:28:52;99160.88;;;9.87;53.98
40155;BME280;25875;48.202;16.334;2023-03-20T06:31:21;99300.16;;;10.86;54.29
40155;BME280;25875;48.202;16.334;2023-03-20T06:33:48;99292.34;;;10.99;54.50
40155;BME280;25875;48.202;16.334;2023-03-20T06:36:15;99302.75;;;11.17;53.89
40155;BME280;25875;48.202;16.334;2023-03-20T06:38:41;99305.06;;;11.38;53.68
40155;BME280;25875;48.202;16.334;2023-03-20T06:41:08;99210.91;;;11.01;53.77
40155;BME280;25875;48.202;16.334;2023-03-20T06:43:35;99237.13;;;11.35;53.42
40155;BME280;25875;48.202;16.334;2023-03-20T06:46:04;99207.66;;;11.40;53.19
40155;BME280;25875;48.202;16.334;2023-03-20T06:48:33;99298.38;;;12.19;53.08
40155;BME280;25875;48.202;16.334;2023-03-20T06:51:01;99306.16;;;12.36;52.73
40155;BME280;25875;48.202;16.334;2023-03-20T06:53:27;99297.84;;;12.55;51.96
40155;BME280;25875;48.202;16.334;2023-03-20T06:55:54;99299.44;;;12.72;51.94
40155;BME280;25875;48.202;16.334;2023-03-20T06:58:21;99017.13;;;11.18;52.31
40155;BME280;25875;48.202;16.334;2023-03-20T07:00:48;99275.34;;;12.88;51.77
40155;BME280;25875;48.202;16.334;2023-03-20T07:03:16;99271.78;;;13.01;51.45
40155;BME280;25875;48.202;16.334;2023-03-20T07:05:45;99293.38;;;13.36;51.38
40155;BME280;25875;48.202;16.334;2023-03-20T07:08:12;99268.34;;;13.39;51.18
40155;BME280;25875;48.202;16.334;2023-03-20T07:10:39;99269.56;;;13.60;50.57
40155;BME280;25875;48.202;16.334;2023-03-20T07:13:06;99302.59;;;13.96;50.64
40155;BME280;25875;48.202;16.334;2023-03-20T07:15:33;99233.34;;;13.70;49.89
40155;BME280;25875;48.202;16.334;2023-03-20T07:18:01;99303.84;;;14.28;50.18
40155;BME280;25875;48.202;16.334;2023-03-20T07:20:27;99273.91;;;14.25;49.49
40155;BME280;25875;48.202;16.334;2023-03-20T07:22:56;99305.31;;;14.58;49.69
40155;BME280;25875;48.202;16.334;2023-03-20T07:25:23;99302.09;;;14.78;49.39
40155;BME280;25875;48.202;16.334;2023-03-20T07:27:50;99300.84;;;14.95;49.15
40155;BME280;25875;48.202;16.334;2023-03-20T07:30:17;99291.31;;;15.03;48.70
40155;BME280;25875;48.202;16.334;2023-03-20T07:32:45;99305.44;;;15.17;48.67
40155;BME280;25875;48.202;16.334;2023-03-20T07:35:13;99302.47;;;15.32;48.47
40155;BME280;25875;48.202;16.334;2023-03-20T07:37:40;99230.09;;;14.89;48.15
40155;BME280;25875;48.202;16.334;2023-03-20T07:40:10;99303.88;;;15.60;47.84
40155;BME280;25875;48.202;16.334;2023-03-20T07:42:36;99273.28;;;15.53;47.65
40155;BME280;25875;48.202;16.334;2023-03-20T07:45:04;99312.34;;;15.78;47.49
40155;BME280;25875;48.202;16.334;2023-03-20T07:47:32;99065.88;;;14.26;47.27
40155;BME280;25875;48.202;16.334;2023-03-20T07:49:59;99230.50;;;15.42;47.56
40155;BME280;25875;48.202;16.334;2023-03-20T07:52:26;99304.34;;;16.00;47.58
40155;BME280;25875;48.202;16.334;2023-03-20T07:54:53;99312.75;;;16.18;47.18
40155;BME280;25875;48.202;16.334;2023-03-20T07:57:21;99014.31;;;14.62;46.67
40155;BME280;25875;48.202;16.334;2023-03-20T07:59:48;99313.81;;;16.60;46.52
40155;BME280;25875;48.202;16.334;2023-03-20T08:02:16;99206.06;;;16.15;46.29
40155;BME280;25875;48.202;16.334;2023-03-20T08:04:43;99307.44;;;17.06;45.75
40155;BME280;25875;48.202;16.334;2023-03-20T08:07:11;99300.06;;;17.19;45.54
40155;BME280;25875;48.202;16.334;2023-03-20T08:09:38;99303.34;;;17.34;45.41
40155;BME280;25875;48.202;16.334;2023-03-20T08:12:05;99321.97;;;17.36;45.07
40155;BME280;25875;48.202;16.334;2023-03-20T08:14:34;99306.34;;;17.41;44.69
40155;BME280;25875;48.202;16.334;2023-03-20T08:17:03;99226.47;;;16.82;45.03
40155;BME280;25875;48.202;16.334;2023-03-20T08:19:30;99300.94;;;17.20;45.29
40155;BME280;25875;48.202;16.334;2023-03-20T08:21:57;99246.44;;;16.78;45.39
40155;BME280;25875;48.202;16.334;2023-03-20T08:24:24;99290.13;;;17.10;45.34
40155;BME280;25875;48.202;16.334;2023-03-20T08:26:51;99299.13;;;17.20;45.16
40155;BME280;25875;48.202;16.334;2023-03-20T08:29:18;99295.56;;;17.31;45.11
40155;BME280;25875;48.202;16.334;2023-03-20T08:31:46;99298.06;;;17.44;44.97
40155;BME280;25875;48.202;16.334;2023-03-20T08:34:13;99291.19;;;17.51;44.86
40155;BME280;25875;48.202;16.334;2023-03-20T08:36:41;99298.56;;;17.70;44.23
40155;BME280;25875;48.202;16.334;2023-03-20T08:39:08;99199.28;;;17.18;43.84
40155;BME280;25875;48.202;16.334;2023-03-20T08:41:36;99293.97;;;17.81;43.81
40155;BME280;25875;48.202;16.334;2023-03-20T08:44:03;99290.50;;;17.90;43.91
40155;BME280;25875;48.202;16.334;2023-03-20T08:46:30;99192.47;;;17.25;43.81
40155;BME280;25875;48.202;16.334;2023-03-20T08:48:59;99289.44;;;18.03;43.73
40155;BME280;25875;48.202;16.334;2023-03-20T08:51:26;99292.03;;;18.14;43.79
40155;BME280;25875;48.202;16.334;2023-03-20T08:53:53;99289.53;;;18.22;43.55
40155;BME280;25875;48.202;16.334;2023-03-20T08:56:20;99254.44;;;18.04;43.71
40155;BME280;25875;48.202;16.334;2023-03-20T08:58:47;99292.66;;;18.27;43.45
40155;BME280;25875;48.202;16.334;2023-03-20T09:01:14;99250.16;;;17.92;43.18
40155;BME280;25875;48.202;16.334;2023-03-20T09:03:41;99170.56;;;17.41;43.36
40155;BME280;25875;48.202;16.334;2023-03-20T09:06:10;99284.94;;;18.43;42.76
40155;BME280;25875;48.202;16.334;2023-03-20T09:08:37;99191.03;;;17.93;42.91
40155;BME280;25875;48.202;16.334;2023-03-20T09:11:05;99304.66;;;18.53;42.83
40155;BME280;25875;48.202;16.334;2023-03-20T09:13:32;99294.78;;;18.54;42.74
40155;BME280;25875;48.202;16.334;2023-03-20T09:15:59;99300.56;;;18.59;42.86
40155;BME280;25875;48.202;16.334;2023-03-20T09:18:26;99137.16;;;17.66;42.58
40155;BME280;25875;48.202;16.334;2023-03-20T09:20:53;99266.81;;;18.56;42.25
40155;BME280;25875;48.202;16.334;2023-03-20T09:23:22;99284.94;;;18.74;42.33
40155;BME280;25875;48.202;16.334;2023-03-20T09:25:49;99182.06;;;18.14;42.32
40155;BME280;25875;48.202;16.334;2023-03-20T09:28:16;99258.50;;;18.69;42.11
40155;BME280;25875;48.202;16.334;2023-03-20T09:30:43;99289.34;;;18.94;41.76
40155;BME280;25875;48.202;16.334;2023-03-20T09:33:11;99191.47;;;18.48;41.62
40155;BME280;25875;48.202;16.334;2023-03-20T09:35:39;99284.56;;;19.07;41.29
40155;BME280;25875;48.202;16.334;2023-03-20T09:38:06;99228.56;;;18.74;41.10
40155;BME280;25875;48.202;16.334;2023-03-20T09:40:48;99278.19;;;19.08;39.79
40155;BME280;25875;48.202;16.334;2023-03-20T09:43:22;99246.66;;;19.01;40.64
40155;BME280;25875;48.202;16.334;2023-03-20T09:46:00;99276.94;;;19.32;39.58
40155;BME280;25875;48.202;16.334;2023-03-20T09:48:34;99282.72;;;19.37;40.08
40155;BME280;25875;48.202;16.334;2023-03-20T09:51:06;99280.19;;;19.54;40.05
40155;BME280;25875;48.202;16.334;2023-03-20T09:53:44;99283.59;;;19.57;39.94
40155;BME280;25875;48.202;16.334;2023-03-20T09:56:20;99280.34;;;19.53;39.63
40155;BME280;25875;48.202;16.334;2023-03-20T09:58:52;99280.75;;;19.58;39.85
40155;BME280;25875;48.202;16.334;2023-03-20T10:01:21;99267.59;;;19.65;40.03
40155;BME280;25875;48.202;16.334;2023-03-20T10:03:53;99274.50;;;19.77;39.65
40155;BME280;25875;48.202;16.334;2023-03-20T10:06:21;99232.69;;;19.45;39.89
40155;BME280;25875;48.202;16.334;2023-03-20T10:08:48;99277.22;;;19.67;39.88
40155;BME280;25875;48.202;16.334;2023-03-20T10:11:41;99266.31;;;19.69;38.45
40155;BME280;25875;48.202;16.334;2023-03-20T10:14:24;99224.47;;;19.57;38.09
40155;BME280;25875;48.202;16.334;2023-03-20T10:17:01;99222.31;;;19.70;37.46
40155;BME280;25875;48.202;16.334;2023-03-20T10:19:31;99217.06;;;19.68;38.95
40155;BME280;25875;48.202;16.334;2023-03-20T10:22:05;99166.47;;;19.35;37.83
40155;BME280;25875;48.202;16.334;2023-03-20T10:24:38;99259.34;;;19.95;38.29
40155;BME280;25875;48.202;16.334;2023-03-20T10:27:19;99206.88;;;19.72;37.59
40155;BME280;25875;48.202;16.334;2023-03-20T10:29:54;99140.03;;;19.40;37.78
40155;BME280;25875;48.202;16.334;2023-03-20T10:32:26;99243.81;;;20.26;38.35
40155;BME280;25875;48.202;16.334;2023-03-20T10:35:12;99240.63;;;20.40;36.33
40155;BME280;25875;48.202;16.334;2023-03-20T10:37:55;99164.56;;;20.11;36.72
40155;BME280;25875;48.202;16.334;2023-03-20T10:40:29;99106.22;;;19.84;37.62
40155;BME280;25875;48.202;16.334;2023-03-20T10:43:00;99177.91;;;20.03;37.00
40155;BME280;25875;48.202;16.334;2023-03-20T10:45:36;99243.06;;;20.34;37.03
40155;BME280;25875;48.202;16.334;2023-03-20T10:48:09;99232.31;;;20.34;37.40
40155;BME280;25875;48.202;16.334;2023-03-20T10:50:41;99185.53;;;20.07;37.70
40155;BME280;25875;48.202;16.334;2023-03-20T10:53:20;99233.16;;;20.34;36.89
40155;BME280;25875;48.202;16.334;2023-03-20T10:55:50;99097.97;;;19.58;38.04
40155;BME280;25875;48.202;16.334;2023-03-20T10:58:22;99225.13;;;20.25;37.41
40155;BME280;25875;48.202;16.334;2023-03-20T11:00:50;99225.13;;;20.15;38.14
40155;BME280;25875;48.202;16.334;2023-03-20T11:03:23;99227.72;;;20.07;38.16
40155;BME280;25875;48.202;16.334;2023-03-20T11:05:56;99141.13;;;19.57;37.89
40155;BME280;25875;48.202;16.334;2023-03-20T11:08:30;99219.06;;;20.13;37.42
40155;BME280;25875;48.202;16.334;2023-03-20T11:11:02;99225.28;;;20.13;38.07
40155;BME280;25875;48.202;16.334;2023-03-20T11:13:34;99207.50;;;20.03;37.45
40155;BME280;25875;48.202;16.334;2023-03-20T11:16:18;99210.53;;;19.90;36.85
40155;BME280;25875;48.202;16.334;2023-03-20T11:18:46;99172.09;;;19.61;38.23
40155;BME280;25875;48.202;16.334;2023-03-20T11:21:18;99107.97;;;19.19;37.96
40155;BME280;25875;48.202;16.334;2023-03-20T11:23:46;99216.50;;;19.84;37.85
40155;BME280;25875;48.202;16.334;2023-03-20T11:26:15;99212.66;;;19.86;37.89
40155;BME280;25875;48.202;16.334;2023-03-20T11:28:49;99196.38;;;19.78;37.29
40155;BME280;25875;48.202;16.334;2023-03-20T11:31:19;99149.09;;;19.39;37.90
40155;BME280;25875;48.202;16.334;2023-03-20T11:33:59;99191.59;;;19.72;38.43
40155;BME280;25875;48.202;16.334;2023-03-20T11:36:28;99186.50;;;19.69;38.18
40155;BME280;25875;48.202;16.334;2023-03-20T11:39:01;99081.88;;;18.92;37.94
40155;BME280;25875;48.202;16.334;2023-03-20T11:41:31;99138.06;;;19.42;38.12
40155;BME280;25875;48.202;16.334;2023-03-20T11:43:59;99177.72;;;19.67;38.16
40155;BME280;25875;48.202;16.334;2023-03-20T11:46:26;99130.69;;;19.44;38.50
40155;BME280;25875;48.202;16.334;2023-03-20T11:49:05;99137.91;;;19.43;38.11
40155;BME280;25875;48.202;16.334;2023-03-20T11:51:34;99185.66;;;19.69;38.35
40155;BME280;25875;48.202;16.334;2023-03-20T11:54:05;99112.34;;;19.20;38.44
40155;BME280;25875;48.202;16.334;2023-03-20T11:56:34;99184.72;;;19.50;38.80
40155;BME280;25875;48.202;16.334;2023-03-20T11:59:11;99119.84;;;19.16;38.45
40155;BME280;25875;48.202;16.334;2023-03-20T12:01:41;99110.53;;;19.11;38.62
40155;BME280;25875;48.202;16.334;2023-03-20T12:04:12;99172.72;;;19.45;38.73
40155;BME280;25875;48.202;16.334;2023-03-20T12:06:51;99170.44;;;19.50;38.41
40155;BME280;25875;48.202;16.334;2023-03-20T12:09:31;99159.38;;;19.53;38.70
40155;BME280;25875;48.202;16.334;2023-03-20T12:12:01;99148.06;;;19.59;38.73
40155;BME280;25875;48.202;16.334;2023-03-20T12:14:38;99171.75;;;19.83;38.16
40155;BME280;25875;48.202;16.334;2023-03-20T12:17:32;99178.53;;;19.87;37.86
40155;BME280;25875;48.202;16.334;2023-03-20T12:20:06;99175.84;;;19.77;38.48
40155;BME280;25875;48.202;16.334;2023-03-20T12:22:42;99176.88;;;19.67;38.19
40155;BME280;25875;48.202;16.334;2023-03-20T12:25:19;99174.81;;;19.51;38.42
40155;BME280;25875;48.202;16.334;2023-03-20T12:27:54;99118.75;;;19.00;38.54
40155;BME280;25875;48.202;16.334;2023-03-20T12:30:30;99179.22;;;19.23;38.52
40155;BME280;25875;48.202;16.334;2023-03-20T12:33:01;99167.94;;;19.10;39.15
40155;BME280;25875;48.202;16.334;2023-03-20T12:35:31;99172.03;;;19.04;39.31
40155;BME280;25875;48.202;16.334;2023-03-20T12:37:59;99175.16;;;19.00;39.61
40155;BME280;25875;48.202;16.334;2023-03-20T12:40:32;99133.19;;;18.60;38.98
40155;BME280;25875;48.202;16.334;2023-03-20T12:43:13;99174.88;;;18.74;39.33
40155;BME280;25875;48.202;16.334;2023-03-20T12:45:46;99179.25;;;18.65;39.21
40155;BME280;25875;48.202;16.334;2023-03-20T12:48:36;99069.28;;;18.06;39.30
40155;BME280;25875;48.202;16.334;2023-03-20T12:51:03;99167.03;;;18.51;39.60
40155;BME280;25875;48.202;16.334;2023-03-20T12:53:43;99162.66;;;18.50;39.57
40155;BME280;25875;48.202;16.334;2023-03-20T12:56:22;99157.44;;;18.49;39.59
40155;BME280;25875;48.202;16.334;2023-03-20T12:58:55;99114.19;;;18.23;39.74
40155;BME280;25875;48.202;16.334;2023-03-20T13:01:30;99155.75;;;18.48;39.66
40155;BME280;25875;48.202;16.334;2023-03-20T13:04:34;99155.31;;;18.43;40.05
40155;BME280;25875;48.202;16.334;2023-03-20T13:07:17;99152.47;;;18.35;40.15
40155;BME280;25875;48.202;16.334;2023-03-20T13:10:02;99153.88;;;18.29;39.79
40155;BME280;25875;48.202;16.334;2023-03-20T13:12:44;98872.53;;;16.59;40.22
40155;BME280;25875;48.202;16.334;2023-03-20T13:15:27;99144.38;;;18.15;40.53
40155;BME280;25875;48.202;16.334;2023-03-20T13:18:02;98896.81;;;16.67;40.94
40155;BME280;25875;48.202;16.334;2023-03-20T13:20:41;99141.44;;;18.28;40.26
40155;BME280;25875;48.202;16.334;2023-03-20T13:23:20;99149.09;;;18.33;40.16